logo
Rechercher aéroport 
image banner adimage banner adimage banner ad
image banner ad

FAHL - Hluhluwe

Situé à Hluhluwe, South Africa

ICAO - FAHL, IATA - HLW

Données fournies par Airmate  

Information générale

Coordonnées: S28°0'50" E32°16'30"
Élévation : 249 feet MSL.
Variation magnétique : -22.0° East
Voir autres Aéroports à Kwazulu-Natal

Données opérationnelles

Special qualification required
Heure actuelle UTC:
Heure actuelle locale:
Météo à : - ( 0 km )
METAR: YPCC 171931Z AUTO 11009KT 3200 +RA SCT006 BKN012 BKN052 25/24 Q1012
Voir NOTAMs / SUP AIP / TFR affectant cet aéroport [VIEW]
Fréquences de communication: [VIEW]

Pistes:

Identifiant RWYQFULongueur (ft)Largeur (ft)SurfaceLDA (ft)
0310°399397GRAS
21190°399397GRAS

Coordonnées de l'aéroport

Adresse: Hluhluwe South Africa

Vue satellite de FAHL